sensor_id;sensor_type;location;lat;lon;timestamp;temperature;humidity
19017;DHT22;9641;51.494;6.670;2022-09-21T00:01:25;10.20;99.90
19017;DHT22;9641;51.494;6.670;2022-09-21T00:03:53;10.30;99.90
19017;DHT22;9641;51.494;6.670;2022-09-21T00:06:23;10.30;99.90
19017;DHT22;9641;51.494;6.670;2022-09-21T00:08:50;10.20;99.90
19017;DHT22;9641;51.494;6.670;2022-09-21T00:11:19;10.20;99.90
19017;DHT22;9641;51.494;6.670;2022-09-21T00:13:46;10.20;99.90
19017;DHT22;9641;51.494;6.670;2022-09-21T00:16:14;10.20;99.90
19017;DHT22;9641;51.494;6.670;2022-09-21T00:18:41;10.20;99.90
19017;DHT22;9641;51.494;6.670;2022-09-21T00:21:10;10.10;99.90
19017;DHT22;9641;51.494;6.670;2022-09-21T00:23:39;10.10;99.90
19017;DHT22;9641;51.494;6.670;2022-09-21T00:26:08;10.10;99.90
19017;DHT22;9641;51.494;6.670;2022-09-21T00:28:35;10.00;99.90
19017;DHT22;9641;51.494;6.670;2022-09-21T00:31:04;10.00;99.90
19017;DHT22;9641;51.494;6.670;2022-09-21T00:33:31;10.00;99.90
19017;DHT22;9641;51.494;6.670;2022-09-21T00:36:01;9.90;99.90
19017;DHT22;9641;51.494;6.670;2022-09-21T00:38:29;9.90;99.90
19017;DHT22;9641;51.494;6.670;2022-09-21T00:40:57;9.90;99.90
19017;DHT22;9641;51.494;6.670;2022-09-21T00:43:24;10.00;99.90
19017;DHT22;9641;51.494;6.670;2022-09-21T00:45:56;10.00;99.90
19017;DHT22;9641;51.494;6.670;2022-09-21T00:48:25;9.90;99.90
19017;DHT22;9641;51.494;6.670;2022-09-21T00:50:56;10.00;99.90
19017;DHT22;9641;51.494;6.670;2022-09-21T00:53:25;10.00;99.90
19017;DHT22;9641;51.494;6.670;2022-09-21T00:55:54;10.10;99.90
19017;DHT22;9641;51.494;6.670;2022-09-21T00:58:27;10.10;99.90
19017;DHT22;9641;51.494;6.670;2022-09-21T01:00:57;10.10;99.90
19017;DHT22;9641;51.494;6.670;2022-09-21T01:03:25;10.10;99.90
19017;DHT22;9641;51.494;6.670;2022-09-21T01:05:53;10.20;99.90
19017;DHT22;9641;51.494;6.670;2022-09-21T01:08:21;10.20;99.90
19017;DHT22;9641;51.494;6.670;2022-09-21T01:11:02;10.30;99.90
19017;DHT22;9641;51.494;6.670;2022-09-21T01:13:38;10.30;99.90
19017;DHT22;9641;51.494;6.670;2022-09-21T01:16:14;10.40;99.90
19017;DHT22;9641;51.494;6.670;2022-09-21T01:18:46;10.40;99.90
19017;DHT22;9641;51.494;6.670;2022-09-21T01:21:21;10.40;99.90
19017;DHT22;9641;51.494;6.670;2022-09-21T01:24:28;10.50;99.90
19017;DHT22;9641;51.494;6.670;2022-09-21T01:27:23;10.40;99.90
19017;DHT22;9641;51.494;6.670;2022-09-21T01:29:56;10.40;99.90
19017;DHT22;9641;51.494;6.670;2022-09-21T01:32:30;10.50;99.90
19017;DHT22;9641;51.494;6.670;2022-09-21T01:35:01;10.50;99.90
19017;DHT22;9641;51.494;6.670;2022-09-21T01:37:32;10.50;99.90
19017;DHT22;9641;51.494;6.670;2022-09-21T01:40:05;10.50;99.90
19017;DHT22;9641;51.494;6.670;2022-09-21T01:42:34;10.50;99.90
19017;DHT22;9641;51.494;6.670;2022-09-21T01:45:06;10.50;99.90
19017;DHT22;9641;51.494;6.670;2022-09-21T01:47:36;10.50;99.90
19017;DHT22;9641;51.494;6.670;2022-09-21T01:50:07;10.40;99.90
19017;DHT22;9641;51.494;6.670;2022-09-21T01:52:38;10.40;99.90
19017;DHT22;9641;51.494;6.670;2022-09-21T01:55:09;10.40;99.90
19017;DHT22;9641;51.494;6.670;2022-09-21T01:57:43;10.40;99.90
19017;DHT22;9641;51.494;6.670;2022-09-21T02:00:15;10.40;99.90
19017;DHT22;9641;51.494;6.670;2022-09-21T02:02:47;10.40;99.90
19017;DHT22;9641;51.494;6.670;2022-09-21T02:05:18;10.40;99.90
19017;DHT22;9641;51.494;6.670;2022-09-21T02:07:46;10.40;99.90
19017;DHT22;9641;51.494;6.670;2022-09-21T02:10:18;10.40;99.90
19017;DHT22;9641;51.494;6.670;2022-09-21T02:12:47;10.40;99.90
19017;DHT22;9641;51.494;6.670;2022-09-21T02:15:18;10.30;99.90
19017;DHT22;9641;51.494;6.670;2022-09-21T02:17:55;10.30;99.90
19017;DHT22;9641;51.494;6.670;2022-09-21T02:20:30;10.20;99.90
19017;DHT22;9641;51.494;6.670;2022-09-21T02:23:05;10.20;99.90
19017;DHT22;9641;51.494;6.670;2022-09-21T02:25:40;10.20;99.90
19017;DHT22;9641;51.494;6.670;2022-09-21T02:28:21;10.20;99.90
19017;DHT22;9641;51.494;6.670;2022-09-21T02:31:00;10.10;99.90
19017;DHT22;9641;51.494;6.670;2022-09-21T02:33:38;10.00;99.90
19017;DHT22;9641;51.494;6.670;2022-09-21T02:36:09;10.00;99.90
19017;DHT22;9641;51.494;6.670;2022-09-21T02:38:40;9.90;99.90
19017;DHT22;9641;51.494;6.670;2022-09-21T02:41:15;9.90;99.90
19017;DHT22;9641;51.494;6.670;2022-09-21T02:43:46;9.90;99.90
19017;DHT22;9641;51.494;6.670;2022-09-21T02:46:18;9.90;99.90
19017;DHT22;9641;51.494;6.670;2022-09-21T02:48:49;9.90;99.90
19017;DHT22;9641;51.494;6.670;2022-09-21T02:51:20;9.90;99.90
19017;DHT22;9641;51.494;6.670;2022-09-21T02:53:49;9.90;99.90
19017;DHT22;9641;51.494;6.670;2022-09-21T02:56:18;9.90;99.90
19017;DHT22;9641;51.494;6.670;2022-09-21T02:58:48;9.90;99.90
19017;DHT22;9641;51.494;6.670;2022-09-21T03:01:18;9.80;99.90
19017;DHT22;9641;51.494;6.670;2022-09-21T03:03:45;9.70;99.90
19017;DHT22;9641;51.494;6.670;2022-09-21T03:06:11;9.70;99.90
19017;DHT22;9641;51.494;6.670;2022-09-21T03:08:38;9.60;99.90
19017;DHT22;9641;51.494;6.670;2022-09-21T03:11:06;9.60;99.90
19017;DHT22;9641;51.494;6.670;2022-09-21T03:13:33;9.50;99.90
19017;DHT22;9641;51.494;6.670;2022-09-21T03:16:03;9.50;99.90
19017;DHT22;9641;51.494;6.670;2022-09-21T03:18:31;9.50;99.90
19017;DHT22;9641;51.494;6.670;2022-09-21T03:20:58;9.50;99.90
19017;DHT22;9641;51.494;6.670;2022-09-21T03:23:25;9.50;99.90
19017;DHT22;9641;51.494;6.670;2022-09-21T03:25:52;9.50;99.90
19017;DHT22;9641;51.494;6.670;2022-09-21T03:28:20;9.50;99.90
19017;DHT22;9641;51.494;6.670;2022-09-21T03:30:47;9.40;99.90
19017;DHT22;9641;51.494;6.670;2022-09-21T03:33:15;9.40;99.90
19017;DHT22;9641;51.494;6.670;2022-09-21T03:35:43;9.40;99.90
19017;DHT22;9641;51.494;6.670;2022-09-21T03:38:10;9.30;99.90
19017;DHT22;9641;51.494;6.670;2022-09-21T03:40:37;9.20;99.90
19017;DHT22;9641;51.494;6.670;2022-09-21T03:43:04;9.20;99.90
19017;DHT22;9641;51.494;6.670;2022-09-21T03:45:31;9.20;99.90
19017;DHT22;9641;51.494;6.670;2022-09-21T03:47:59;9.10;99.90
19017;DHT22;9641;51.494;6.670;2022-09-21T03:50:27;9.10;99.90
19017;DHT22;9641;51.494;6.670;2022-09-21T03:52:56;9.10;99.90
19017;DHT22;9641;51.494;6.670;2022-09-21T03:55:23;9.10;99.90
19017;DHT22;9641;51.494;6.670;2022-09-21T03:57:51;9.10;99.90
19017;DHT22;9641;51.494;6.670;2022-09-21T04:00:18;9.00;99.90
19017;DHT22;9641;51.494;6.670;2022-09-21T04:02:45;9.00;99.90
19017;DHT22;9641;51.494;6.670;2022-09-21T04:05:14;9.00;99.90
19017;DHT22;9641;51.494;6.670;2022-09-21T04:07:42;8.90;99.90
19017;DHT22;9641;51.494;6.670;2022-09-21T04:10:13;8.90;99.90
19017;DHT22;9641;51.494;6.670;2022-09-21T04:12:40;8.90;99.90
19017;DHT22;9641;51.494;6.670;2022-09-21T04:15:09;8.90;99.90
19017;DHT22;9641;51.494;6.670;2022-09-21T04:17:36;8.80;99.90
19017;DHT22;9641;51.494;6.670;2022-09-21T04:20:04;8.80;99.90
19017;DHT22;9641;51.494;6.670;2022-09-21T04:22:31;8.80;99.90
19017;DHT22;9641;51.494;6.670;2022-09-21T04:24:57;8.80;99.90
19017;DHT22;9641;51.494;6.670;2022-09-21T04:27:27;8.80;99.90
19017;DHT22;9641;51.494;6.670;2022-09-21T04:29:54;8.80;99.90
19017;DHT22;9641;51.494;6.670;2022-09-21T04:32:21;8.80;99.90
19017;DHT22;9641;51.494;6.670;2022-09-21T04:34:48;8.80;99.90
19017;DHT22;9641;51.494;6.670;2022-09-21T04:37:15;8.80;99.90
19017;DHT22;9641;51.494;6.670;2022-09-21T04:39:42;8.80;99.90
19017;DHT22;9641;51.494;6.670;2022-09-21T04:42:09;8.90;99.90
19017;DHT22;9641;51.494;6.670;2022-09-21T04:44:37;8.80;99.90
19017;DHT22;9641;51.494;6.670;2022-09-21T04:47:04;8.80;99.90
19017;DHT22;9641;51.494;6.670;2022-09-21T04:49:31;8.70;99.90
19017;DHT22;9641;51.494;6.670;2022-09-21T04:51:58;8.70;99.90
19017;DHT22;9641;51.494;6.670;2022-09-21T04:54:25;8.70;99.90
19017;DHT22;9641;51.494;6.670;2022-09-21T04:56:52;8.60;99.90
19017;DHT22;9641;51.494;6.670;2022-09-21T04:59:18;8.60;99.90
19017;DHT22;9641;51.494;6.670;2022-09-21T05:01:47;8.50;99.90
19017;DHT22;9641;51.494;6.670;2022-09-21T05:04:14;8.50;99.90
19017;DHT22;9641;51.494;6.670;2022-09-21T05:06:41;8.50;99.90
19017;DHT22;9641;51.494;6.670;2022-09-21T05:09:07;8.50;99.90
19017;DHT22;9641;51.494;6.670;2022-09-21T05:11:52;8.40;99.90
19017;DHT22;9641;51.494;6.670;2022-09-21T05:14:19;8.40;99.90
19017;DHT22;9641;51.494;6.670;2022-09-21T05:16:47;8.50;99.90
19017;DHT22;9641;51.494;6.670;2022-09-21T05:19:14;8.50;99.90
19017;DHT22;9641;51.494;6.670;2022-09-21T05:21:41;8.50;99.90
19017;DHT22;9641;51.494;6.670;2022-09-21T05:24:08;8.50;99.90
19017;DHT22;9641;51.494;6.670;2022-09-21T05:26:35;8.40;99.90
19017;DHT22;9641;51.494;6.670;2022-09-21T05:29:03;8.40;99.90
19017;DHT22;9641;51.494;6.670;2022-09-21T05:31:37;8.40;99.90
19017;DHT22;9641;51.494;6.670;2022-09-21T05:34:25;8.40;99.90
19017;DHT22;9641;51.494;6.670;2022-09-21T05:36:59;8.40;99.90
19017;DHT22;9641;51.494;6.670;2022-09-21T05:39:27;8.40;99.90
19017;DHT22;9641;51.494;6.670;2022-09-21T05:41:55;8.40;99.90
19017;DHT22;9641;51.494;6.670;2022-09-21T05:44:22;8.50;99.90
19017;DHT22;9641;51.494;6.670;2022-09-21T05:46:54;8.60;99.90
19017;DHT22;9641;51.494;6.670;2022-09-21T05:49:33;8.70;99.90
19017;DHT22;9641;51.494;6.670;2022-09-21T05:52:07;8.70;99.90
19017;DHT22;9641;51.494;6.670;2022-09-21T05:54:49;8.70;99.90
19017;DHT22;9641;51.494;6.670;2022-09-21T05:57:23;8.70;99.90
19017;DHT22;9641;51.494;6.670;2022-09-21T06:00:02;8.70;99.90
19017;DHT22;9641;51.494;6.670;2022-09-21T06:02:49;8.70;99.90
19017;DHT22;9641;51.494;6.670;2022-09-21T06:05:20;8.70;99.90
19017;DHT22;9641;51.494;6.670;2022-09-21T06:07:47;8.80;99.90
19017;DHT22;9641;51.494;6.670;2022-09-21T06:10:14;8.80;99.90
19017;DHT22;9641;51.494;6.670;2022-09-21T06:12:42;8.80;99.90
19017;DHT22;9641;51.494;6.670;2022-09-21T06:15:10;8.90;99.90
19017;DHT22;9641;51.494;6.670;2022-09-21T06:17:38;8.90;99.90
19017;DHT22;9641;51.494;6.670;2022-09-21T06:20:06;8.90;99.90
19017;DHT22;9641;51.494;6.670;2022-09-21T06:22:34;9.00;99.90
19017;DHT22;9641;51.494;6.670;2022-09-21T06:25:01;9.00;99.90
19017;DHT22;9641;51.494;6.670;2022-09-21T06:27:28;9.00;99.90
19017;DHT22;9641;51.494;6.670;2022-09-21T06:29:55;9.10;99.90
19017;DHT22;9641;51.494;6.670;2022-09-21T06:32:22;9.20;99.90
19017;DHT22;9641;51.494;6.670;2022-09-21T06:34:55;9.20;99.90
19017;DHT22;9641;51.494;6.670;2022-09-21T06:37:22;9.30;99.90
19017;DHT22;9641;51.494;6.670;2022-09-21T06:39:51;9.30;99.90
19017;DHT22;9641;51.494;6.670;2022-09-21T06:42:17;9.50;99.90
19017;DHT22;9641;51.494;6.670;2022-09-21T06:44:45;9.50;99.90
19017;DHT22;9641;51.494;6.670;2022-09-21T06:47:12;9.60;99.90
19017;DHT22;9641;51.494;6.670;2022-09-21T06:49:39;9.70;99.90
19017;DHT22;9641;51.494;6.670;2022-09-21T06:52:06;9.80;99.90
19017;DHT22;9641;51.494;6.670;2022-09-21T06:54:33;9.90;99.90
19017;DHT22;9641;51.494;6.670;2022-09-21T06:57:01;10.00;99.90
19017;DHT22;9641;51.494;6.670;2022-09-21T06:59:28;10.10;99.90
19017;DHT22;9641;51.494;6.670;2022-09-21T07:01:55;10.20;99.90
19017;DHT22;9641;51.494;6.670;2022-09-21T07:04:23;10.30;99.90
19017;DHT22;9641;51.494;6.670;2022-09-21T07:06:50;10.50;99.90
19017;DHT22;9641;51.494;6.670;2022-09-21T07:09:17;10.60;99.90
19017;DHT22;9641;51.494;6.670;2022-09-21T07:11:44;10.70;99.90
19017;DHT22;9641;51.494;6.670;2022-09-21T07:14:13;10.80;99.90
19017;DHT22;9641;51.494;6.670;2022-09-21T07:16:40;10.90;99.90
19017;DHT22;9641;51.494;6.670;2022-09-21T07:19:07;11.00;99.90
19017;DHT22;9641;51.494;6.670;2022-09-21T07:21:34;11.10;99.90
19017;DHT22;9641;51.494;6.670;2022-09-21T07:24:01;11.30;99.90
19017;DHT22;9641;51.494;6.670;2022-09-21T07:26:27;11.40;99.90
19017;DHT22;9641;51.494;6.670;2022-09-21T07:28:55;11.40;99.90
19017;DHT22;9641;51.494;6.670;2022-09-21T07:31:23;11.50;99.90
19017;DHT22;9641;51.494;6.670;2022-09-21T07:33:55;11.70;99.90
19017;DHT22;9641;51.494;6.670;2022-09-21T07:36:23;11.80;99.90
19017;DHT22;9641;51.494;6.670;2022-09-21T07:38:50;11.90;99.90
19017;DHT22;9641;51.494;6.670;2022-09-21T07:41:17;11.90;99.90
19017;DHT22;9641;51.494;6.670;2022-09-21T07:43:44;12.10;99.90
19017;DHT22;9641;51.494;6.670;2022-09-21T07:46:13;12.20;99.90
19017;DHT22;9641;51.494;6.670;2022-09-21T07:48:41;12.30;99.90
19017;DHT22;9641;51.494;6.670;2022-09-21T07:51:10;12.40;99.90
19017;DHT22;9641;51.494;6.670;2022-09-21T07:53:38;12.50;99.90
19017;DHT22;9641;51.494;6.670;2022-09-21T07:56:07;12.50;99.90
19017;DHT22;9641;51.494;6.670;2022-09-21T07:58:34;12.50;99.90
19017;DHT22;9641;51.494;6.670;2022-09-21T08:01:18;12.60;99.90
19017;DHT22;9641;51.494;6.670;2022-09-21T08:03:49;12.60;99.90
19017;DHT22;9641;51.494;6.670;2022-09-21T08:06:16;12.60;99.90
19017;DHT22;9641;51.494;6.670;2022-09-21T08:08:42;12.70;99.90
19017;DHT22;9641;51.494;6.670;2022-09-21T08:11:13;12.80;99.90
19017;DHT22;9641;51.494;6.670;2022-09-21T08:13:40;12.80;99.90
19017;DHT22;9641;51.494;6.670;2022-09-21T08:16:08;12.80;99.90
19017;DHT22;9641;51.494;6.670;2022-09-21T08:18:36;12.80;99.90
19017;DHT22;9641;51.494;6.670;2022-09-21T08:21:09;12.80;99.90
19017;DHT22;9641;51.494;6.670;2022-09-21T08:23:37;12.80;99.90
19017;DHT22;9641;51.494;6.670;2022-09-21T08:26:09;12.80;99.90
19017;DHT22;9641;51.494;6.670;2022-09-21T08:28:37;12.80;99.90
19017;DHT22;9641;51.494;6.670;2022-09-21T08:31:06;12.80;99.90
19017;DHT22;9641;51.494;6.670;2022-09-21T08:33:33;12.80;99.90
19017;DHT22;9641;51.494;6.670;2022-09-21T08:36:01;12.80;99.90
19017;DHT22;9641;51.494;6.670;2022-09-21T08:38:33;12.80;28.60
19017;DHT22;9641;51.494;6.670;2022-09-21T08:41:02;12.90;47.00
19017;DHT22;9641;51.494;6.670;2022-09-21T08:43:40;12.90;73.70
19017;DHT22;9641;51.494;6.670;2022-09-21T08:46:11;12.90;19.10
19017;DHT22;9641;51.494;6.670;2022-09-21T08:48:42;12.90;20.10
19017;DHT22;9641;51.494;6.670;2022-09-21T08:51:14;13.00;15.70
19017;DHT22;9641;51.494;6.670;2022-09-21T08:53:45;13.00;7.70
19017;DHT22;9641;51.494;6.670;2022-09-21T08:56:14;13.10;21.00
19017;DHT22;9641;51.494;6.670;2022-09-21T08:58:42;13.20;3.90
19017;DHT22;9641;51.494;6.670;2022-09-21T09:01:27;13.20;8.40
19017;DHT22;9641;51.494;6.670;2022-09-21T09:04:08;13.30;1.00
19017;DHT22;9641;51.494;6.670;2022-09-21T09:06:44;13.40;1.00
19017;DHT22;9641;51.494;6.670;2022-09-21T09:09:29;13.40;1.00
19017;DHT22;9641;51.494;6.670;2022-09-21T09:12:13;13.40;1.00
19017;DHT22;9641;51.494;6.670;2022-09-21T09:14:53;13.50;1.00
19017;DHT22;9641;51.494;6.670;2022-09-21T09:17:35;13.60;1.00
19017;DHT22;9641;51.494;6.670;2022-09-21T09:20:08;13.70;1.00
19017;DHT22;9641;51.494;6.670;2022-09-21T09:22:41;13.80;1.00
19017;DHT22;9641;51.494;6.670;2022-09-21T09:25:16;13.80;1.00
19017;DHT22;9641;51.494;6.670;2022-09-21T09:27:52;14.00;1.00
19017;DHT22;9641;51.494;6.670;2022-09-21T09:30:20;14.10;1.00
19017;DHT22;9641;51.494;6.670;2022-09-21T09:32:53;14.10;1.00
19017;DHT22;9641;51.494;6.670;2022-09-21T09:35:28;14.20;37.80
19017;DHT22;9641;51.494;6.670;2022-09-21T09:37:59;14.30;99.90
19017;DHT22;9641;51.494;6.670;2022-09-21T09:40:58;14.50;1.00
19017;DHT22;9641;51.494;6.670;2022-09-21T09:43:52;14.70;1.00
19017;DHT22;9641;51.494;6.670;2022-09-21T09:46:33;14.90;1.00
19017;DHT22;9641;51.494;6.670;2022-09-21T09:49:17;15.00;1.00
19017;DHT22;9641;51.494;6.670;2022-09-21T09:51:49;15.20;1.00
19017;DHT22;9641;51.494;6.670;2022-09-21T09:54:17;15.40;99.90
19017;DHT22;9641;51.494;6.670;2022-09-21T09:56:48;15.60;99.90
19017;DHT22;9641;51.494;6.670;2022-09-21T09:59:26;15.70;1.00
19017;DHT22;9641;51.494;6.670;2022-09-21T10:02:00;15.80;99.90
19017;DHT22;9641;51.494;6.670;2022-09-21T10:04:27;15.90;99.90
19017;DHT22;9641;51.494;6.670;2022-09-21T10:06:54;16.00;1.00
19017;DHT22;9641;51.494;6.670;2022-09-21T10:09:26;16.10;99.90
19017;DHT22;9641;51.494;6.670;2022-09-21T10:11:57;16.30;1.00
19017;DHT22;9641;51.494;6.670;2022-09-21T10:14:27;16.40;1.00
19017;DHT22;9641;51.494;6.670;2022-09-21T10:17:16;16.60;1.00
19017;DHT22;9641;51.494;6.670;2022-09-21T10:19:43;16.70;99.90
19017;DHT22;9641;51.494;6.670;2022-09-21T10:22:16;16.70;99.90
19017;DHT22;9641;51.494;6.670;2022-09-21T10:24:45;17.00;1.00
19017;DHT22;9641;51.494;6.670;2022-09-21T10:27:20;17.20;1.00
19017;DHT22;9641;51.494;6.670;2022-09-21T10:29:49;17.30;1.00
19017;DHT22;9641;51.494;6.670;2022-09-21T10:32:22;17.40;1.00
19017;DHT22;9641;51.494;6.670;2022-09-21T10:35:14;17.40;99.90
19017;DHT22;9641;51.494;6.670;2022-09-21T10:37:43;17.50;99.90
19017;DHT22;9641;51.494;6.670;2022-09-21T10:40:27;17.50;99.90
19017;DHT22;9641;51.494;6.670;2022-09-21T10:42:58;17.50;99.90
19017;DHT22;9641;51.494;6.670;2022-09-21T10:45:27;17.40;99.90
19017;DHT22;9641;51.494;6.670;2022-09-21T10:47:56;17.40;99.90
19017;DHT22;9641;51.494;6.670;2022-09-21T10:50:27;17.00;99.90
19017;DHT22;9641;51.494;6.670;2022-09-21T10:52:58;16.90;1.00
19017;DHT22;9641;51.494;6.670;2022-09-21T10:55:28;16.90;99.90
19017;DHT22;9641;51.494;6.670;2022-09-21T10:57:58;16.80;99.90
19017;DHT22;9641;51.494;6.670;2022-09-21T11:00:32;17.00;1.00
19017;DHT22;9641;51.494;6.670;2022-09-21T11:05:51;17.30;99.90
19017;DHT22;9641;51.494;6.670;2022-09-21T11:08:22;17.40;1.00
19017;DHT22;9641;51.494;6.670;2022-09-21T11:11:02;17.50;1.00
19017;DHT22;9641;51.494;6.670;2022-09-21T11:13:36;17.70;99.90
19017;DHT22;9641;51.494;6.670;2022-09-21T11:16:12;17.80;99.90
19017;DHT22;9641;51.494;6.670;2022-09-21T11:18:45;17.80;99.90
19017;DHT22;9641;51.494;6.670;2022-09-21T11:21:18;17.70;99.90
19017;DHT22;9641;51.494;6.670;2022-09-21T11:23:54;17.60;99.90
19017;DHT22;9641;51.494;6.670;2022-09-21T11:26:27;17.30;99.90
19017;DHT22;9641;51.494;6.670;2022-09-21T11:29:01;17.20;99.90
19017;DHT22;9641;51.494;6.670;2022-09-21T11:31:50;17.10;99.90
19017;DHT22;9641;51.494;6.670;2022-09-21T11:34:46;17.00;99.90
19017;DHT22;9641;51.494;6.670;2022-09-21T11:37:32;17.00;99.90
19017;DHT22;9641;51.494;6.670;2022-09-21T11:40:18;17.00;1.00
19017;DHT22;9641;51.494;6.670;2022-09-21T11:42:58;16.90;99.90
19017;DHT22;9641;51.494;6.670;2022-09-21T11:45:42;17.00;99.90
19017;DHT22;9641;51.494;6.670;2022-09-21T11:48:17;16.90;99.90
19017;DHT22;9641;51.494;6.670;2022-09-21T11:51:00;17.00;99.90
19017;DHT22;9641;51.494;6.670;2022-09-21T11:53:36;17.00;99.90
19017;DHT22;9641;51.494;6.670;2022-09-21T11:56:33;16.90;99.90
19017;DHT22;9641;51.494;6.670;2022-09-21T11:59:25;16.90;1.00
19017;DHT22;9641;51.494;6.670;2022-09-21T12:02:16;16.80;1.00
19017;DHT22;9641;51.494;6.670;2022-09-21T12:04:50;16.90;99.90
19017;DHT22;9641;51.494;6.670;2022-09-21T12:07:29;16.80;99.90
19017;DHT22;9641;51.494;6.670;2022-09-21T12:12:54;16.80;99.90
19017;DHT22;9641;51.494;6.670;2022-09-21T12:15:24;16.90;99.90
19017;DHT22;9641;51.494;6.670;2022-09-21T12:18:01;17.20;99.90
19017;DHT22;9641;51.494;6.670;2022-09-21T12:20:36;17.90;99.90
19017;DHT22;9641;51.494;6.670;2022-09-21T12:23:13;18.10;99.90
19017;DHT22;9641;51.494;6.670;2022-09-21T12:25:45;18.10;99.90
19017;DHT22;9641;51.494;6.670;2022-09-21T12:28:19;18.20;99.90
19017;DHT22;9641;51.494;6.670;2022-09-21T12:30:54;18.70;99.90
19017;DHT22;9641;51.494;6.670;2022-09-21T12:33:32;18.60;98.80
19017;DHT22;9641;51.494;6.670;2022-09-21T12:36:07;18.10;59.00
19017;DHT22;9641;51.494;6.670;2022-09-21T12:38:40;17.90;49.60
19017;DHT22;9641;51.494;6.670;2022-09-21T12:41:15;18.10;48.60
19017;DHT22;9641;51.494;6.670;2022-09-21T12:43:47;18.70;44.60
19017;DHT22;9641;51.494;6.670;2022-09-21T12:46:24;19.40;18.10
19017;DHT22;9641;51.494;6.670;2022-09-21T12:48:52;20.20;7.20
19017;DHT22;9641;51.494;6.670;2022-09-21T12:51:24;20.90;1.00
19017;DHT22;9641;51.494;6.670;2022-09-21T12:53:57;21.30;1.00
19017;DHT22;9641;51.494;6.670;2022-09-21T12:56:33;21.00;1.00
19017;DHT22;9641;51.494;6.670;2022-09-21T12:59:16;20.40;1.00
19017;DHT22;9641;51.494;6.670;2022-09-21T13:01:48;19.80;1.00
19017;DHT22;9641;51.494;6.670;2022-09-21T13:04:33;19.10;1.00
19017;DHT22;9641;51.494;6.670;2022-09-21T13:07:28;18.70;1.00
19017;DHT22;9641;51.494;6.670;2022-09-21T13:09:58;18.30;1.00
19017;DHT22;9641;51.494;6.670;2022-09-21T13:12:29;18.10;1.00
19017;DHT22;9641;51.494;6.670;2022-09-21T13:15:13;18.00;1.00
19017;DHT22;9641;51.494;6.670;2022-09-21T13:17:41;17.90;1.00
19017;DHT22;9641;51.494;6.670;2022-09-21T13:20:17;17.70;1.00
19017;DHT22;9641;51.494;6.670;2022-09-21T13:22:45;18.00;1.00
19017;DHT22;9641;51.494;6.670;2022-09-21T13:25:22;19.20;1.00
19017;DHT22;9641;51.494;6.670;2022-09-21T13:28:02;21.20;9.50
19017;DHT22;9641;51.494;6.670;2022-09-21T13:30:32;22.90;1.00
19017;DHT22;9641;51.494;6.670;2022-09-21T13:33:01;23.90;1.00
19017;DHT22;9641;51.494;6.670;2022-09-21T13:35:50;24.20;1.00
19017;DHT22;9641;51.494;6.670;2022-09-21T13:38:27;24.90;1.00
19017;DHT22;9641;51.494;6.670;2022-09-21T13:41:05;25.60;1.00
19017;DHT22;9641;51.494;6.670;2022-09-21T13:43:59;26.20;1.00
19017;DHT22;9641;51.494;6.670;2022-09-21T13:46:49;26.10;1.00
19017;DHT22;9641;51.494;6.670;2022-09-21T13:49:38;25.90;1.00
19017;DHT22;9641;51.494;6.670;2022-09-21T13:52:21;25.00;1.00
19017;DHT22;9641;51.494;6.670;2022-09-21T13:54:53;24.70;1.00
19017;DHT22;9641;51.494;6.670;2022-09-21T13:57:26;24.60;1.00
19017;DHT22;9641;51.494;6.670;2022-09-21T14:00:29;25.20;1.00
19017;DHT22;9641;51.494;6.670;2022-09-21T14:02:58;24.70;1.00
19017;DHT22;9641;51.494;6.670;2022-09-21T14:05:32;24.20;1.00
19017;DHT22;9641;51.494;6.670;2022-09-21T14:08:05;24.00;1.00
19017;DHT22;9641;51.494;6.670;2022-09-21T14:10:36;24.20;1.00
19017;DHT22;9641;51.494;6.670;2022-09-21T14:13:24;24.20;1.00
19017;DHT22;9641;51.494;6.670;2022-09-21T14:15:52;23.80;1.00
19017;DHT22;9641;51.494;6.670;2022-09-21T14:18:34;23.30;1.00
19017;DHT22;9641;51.494;6.670;2022-09-21T14:21:10;22.60;1.00
19017;DHT22;9641;51.494;6.670;2022-09-21T14:24:08;21.90;1.00
19017;DHT22;9641;51.494;6.670;2022-09-21T14:26:58;21.10;1.00
19017;DHT22;9641;51.494;6.670;2022-09-21T14:29:29;19.90;1.00
19017;DHT22;9641;51.494;6.670;2022-09-21T14:32:01;19.10;1.00
19017;DHT22;9641;51.494;6.670;2022-09-21T14:34:32;18.50;1.00
19017;DHT22;9641;51.494;6.670;2022-09-21T14:37:03;18.40;1.00
19017;DHT22;9641;51.494;6.670;2022-09-21T14:39:36;18.50;1.00
19017;DHT22;9641;51.494;6.670;2022-09-21T14:42:08;18.40;1.00
19017;DHT22;9641;51.494;6.670;2022-09-21T14:44:38;18.50;1.00
19017;DHT22;9641;51.494;6.670;2022-09-21T14:47:20;18.50;1.00
19017;DHT22;9641;51.494;6.670;2022-09-21T14:50:01;18.40;1.00
19017;DHT22;9641;51.494;6.670;2022-09-21T14:52:36;18.40;1.00
19017;DHT22;9641;51.494;6.670;2022-09-21T14:55:15;18.20;1.00
19017;DHT22;9641;51.494;6.670;2022-09-21T14:57:53;18.20;1.00
19017;DHT22;9641;51.494;6.670;2022-09-21T15:00:36;18.20;1.00
19017;DHT22;9641;51.494;6.670;2022-09-21T15:03:35;18.20;1.00
19017;DHT22;9641;51.494;6.670;2022-09-21T15:06:14;17.90;1.00
19017;DHT22;9641;51.494;6.670;2022-09-21T15:09:22;17.80;1.00
19017;DHT22;9641;51.494;6.670;2022-09-21T15:12:14;17.80;1.00
19017;DHT22;9641;51.494;6.670;2022-09-21T15:14:45;17.80;1.00
19017;DHT22;9641;51.494;6.670;2022-09-21T15:17:24;17.70;1.00
19017;DHT22;9641;51.494;6.670;2022-09-21T15:19:56;17.60;1.00
19017;DHT22;9641;51.494;6.670;2022-09-21T15:22:24;17.60;1.00
19017;DHT22;9641;51.494;6.670;2022-09-21T15:24:56;17.40;1.00
19017;DHT22;9641;51.494;6.670;2022-09-21T15:27:26;17.40;1.00
19017;DHT22;9641;51.494;6.670;2022-09-21T15:29:59;17.40;1.00
19017;DHT22;9641;51.494;6.670;2022-09-21T15:32:34;17.40;1.00
19017;DHT22;9641;51.494;6.670;2022-09-21T15:35:03;17.50;1.00
19017;DHT22;9641;51.494;6.670;2022-09-21T15:37:34;17.50;1.00
19017;DHT22;9641;51.494;6.670;2022-09-21T15:40:13;17.40;1.00
19017;DHT22;9641;51.494;6.670;2022-09-21T15:42:57;17.20;1.00
19017;DHT22;9641;51.494;6.670;2022-09-21T15:45:26;17.20;1.00
19017;DHT22;9641;51.494;6.670;2022-09-21T15:47:54;17.20;1.00
19017;DHT22;9641;51.494;6.670;2022-09-21T15:50:24;17.30;1.00
19017;DHT22;9641;51.494;6.670;2022-09-21T15:52:55;17.20;1.00
19017;DHT22;9641;51.494;6.670;2022-09-21T15:55:23;17.10;1.00
19017;DHT22;9641;51.494;6.670;2022-09-21T15:57:53;17.10;99.90
19017;DHT22;9641;51.494;6.670;2022-09-21T16:00:23;17.00;1.00
19017;DHT22;9641;51.494;6.670;2022-09-21T16:02:57;16.90;99.90
19017;DHT22;9641;51.494;6.670;2022-09-21T16:05:30;16.80;99.90
19017;DHT22;9641;51.494;6.670;2022-09-21T16:08:06;16.80;1.00
19017;DHT22;9641;51.494;6.670;2022-09-21T16:10:39;16.70;1.00
19017;DHT22;9641;51.494;6.670;2022-09-21T16:13:14;16.60;1.00
19017;DHT22;9641;51.494;6.670;2022-09-21T16:16:02;16.50;99.90
19017;DHT22;9641;51.494;6.670;2022-09-21T16:18:31;16.30;1.00
19017;DHT22;9641;51.494;6.670;2022-09-21T16:21:08;16.20;64.10
19017;DHT22;9641;51.494;6.670;2022-09-21T16:23:35;16.00;99.90
19017;DHT22;9641;51.494;6.670;2022-09-21T16:26:04;15.90;99.90
19017;DHT22;9641;51.494;6.670;2022-09-21T16:28:38;15.80;1.00
19017;DHT22;9641;51.494;6.670;2022-09-21T16:31:27;15.70;99.90
19017;DHT22;9641;51.494;6.670;2022-09-21T16:34:02;15.60;1.00
19017;DHT22;9641;51.494;6.670;2022-09-21T16:36:50;15.50;1.00